Aérodrome :
LOGIN :

S'inscrire | Disclaimer

   EN    FR    IT 

 










Légende :    VFR   VFR Marginal   IFR   IFR Intensif   IFR Très Intensif
Visi : 
Plafond : 
>= 8 km
>= 3000ft
5 à 8 km
1000 à 3000 ft
1500m à 5 km
500 à 1000 ft
800 à 1500m
200 à 500 ft
< 800m
< 200 ft
Symboles :   Orages  Brouillard  Fortes neiges  Fortes précipitations  Vent > 20 kt
SIGMETs :   Divers  Orages  Givrage  Turbulence  Onde Orograph.  Cendres Volcan.






- Altitude de l'aérodrome : 913 ft


LFSX - Luxeuil

DERNIER METAR :
  • 121800Z AUTO 11006KT CAVOK 02/M01 Q0997

METARs EXPIRÉS :
  • 121730Z AUTO 11006KT CAVOK 01/M01 Q0998
  • 121700Z AUTO 11007KT CAVOK 01/M01 Q0999
  • 121630Z AUTO 11008KT 9999 ////// 01/M00 Q0999
  • 121600Z AUTO 11008KT CAVOK 02/M00 Q1001
  • 121530Z AUTO 14005KT 9999 FEW033 BKN130 03/00 Q1001

TAF TAF LFSX
Valide du 12 à 15h jusqu'au 13 à 15h UTC


121400Z 1215/1315 15011KT 9999 SCT035
FM122230 23015KT 4900 -RA BKN014
TEMPO 1223/1309 24016G26KT 3500 RA BKN008
TEMPO 1309/1315 25018G33KT 3000 SHRA FEW011 BKN020TCU



MET'MAP, la Météo Aéronautique d'un coup d'oeil ! - Copyright ORBIFLY Décembre 2007 - Disclaimer

ORBIFLY MET'MAP TEAM :

Programmation & Développement : Alexandra Zaïnal
Sur une idée originale de : Baudouin d'Aumeries
Assistance à la programmation : Marc-Olivier Méhu
Soutien technique & logistique : Manuel Goepfert

Contact : metmap@orbifly.com




SOURCES & CREDITS :

   NOAA